sensor_id;sensor_type;location;lat;lon;timestamp;pressure;altitude;pressure_sealevel;temperature;humidity
54870;BME280;40756;-37.950;145.008;2022-12-13T00:01:59;100498.23;;;17.11;34.73
54870;BME280;40756;-37.950;145.008;2022-12-13T00:04:28;100497.59;;;17.23;35.65
54870;BME280;40756;-37.950;145.008;2022-12-13T00:06:58;100486.65;;;17.73;35.14
54870;BME280;40756;-37.950;145.008;2022-12-13T00:09:27;100475.12;;;17.87;34.37
54870;BME280;40756;-37.950;145.008;2022-12-13T00:11:57;100475.08;;;18.26;33.49
54870;BME280;40756;-37.950;145.008;2022-12-13T00:14:26;100480.91;;;18.36;33.71
54870;BME280;40756;-37.950;145.008;2022-12-13T00:16:56;100480.07;;;18.32;32.26
54870;BME280;40756;-37.950;145.008;2022-12-13T00:19:25;100484.92;;;18.46;32.87
54870;BME280;40756;-37.950;145.008;2022-12-13T00:21:55;100480.33;;;17.48;31.98
54870;BME280;40756;-37.950;145.008;2022-12-13T00:24:25;100479.47;;;17.28;33.20
54870;BME280;40756;-37.950;145.008;2022-12-13T00:26:55;100474.67;;;16.98;33.54
54870;BME280;40756;-37.950;145.008;2022-12-13T00:29:25;100468.33;;;17.47;33.68
54870;BME280;40756;-37.950;145.008;2022-12-13T00:31:55;100463.06;;;18.08;34.47
54870;BME280;40756;-37.950;145.008;2022-12-13T00:34:24;100472.09;;;16.79;34.54
54870;BME280;40756;-37.950;145.008;2022-12-13T00:36:54;100466.58;;;17.02;34.83
54870;BME280;40756;-37.950;145.008;2022-12-13T00:39:24;100465.38;;;16.51;34.89
54870;BME280;40756;-37.950;145.008;2022-12-13T00:41:54;100462.34;;;16.96;35.26
54870;BME280;40756;-37.950;145.008;2022-12-13T00:44:24;100459.14;;;17.96;35.39
54870;BME280;40756;-37.950;145.008;2022-12-13T00:46:54;100460.21;;;17.33;34.18
54870;BME280;40756;-37.950;145.008;2022-12-13T00:49:24;100456.27;;;16.62;35.57
54870;BME280;40756;-37.950;145.008;2022-12-13T00:51:53;100453.60;;;17.34;34.83
54870;BME280;40756;-37.950;145.008;2022-12-13T00:54:23;100453.16;;;17.88;35.11
54870;BME280;40756;-37.950;145.008;2022-12-13T00:56:52;100442.35;;;18.03;34.29
54870;BME280;40756;-37.950;145.008;2022-12-13T00:59:22;100438.98;;;17.64;34.62
54870;BME280;40756;-37.950;145.008;2022-12-13T01:01:51;100440.03;;;17.70;35.59
54870;BME280;40756;-37.950;145.008;2022-12-13T01:04:21;100440.11;;;17.77;34.10
54870;BME280;40756;-37.950;145.008;2022-12-13T01:06:51;100428.71;;;18.04;34.88
54870;BME280;40756;-37.950;145.008;2022-12-13T01:09:23;100426.92;;;17.49;35.00
54870;BME280;40756;-37.950;145.008;2022-12-13T01:11:56;100412.73;;;17.43;35.03
54870;BME280;40756;-37.950;145.008;2022-12-13T01:14:27;100404.93;;;17.91;34.00
54870;BME280;40756;-37.950;145.008;2022-12-13T01:16:56;100404.26;;;17.21;33.98
54870;BME280;40756;-37.950;145.008;2022-12-13T01:19:27;100400.94;;;17.10;34.31
54870;BME280;40756;-37.950;145.008;2022-12-13T01:21:58;100398.16;;;17.63;34.96
54870;BME280;40756;-37.950;145.008;2022-12-13T01:24:29;100403.95;;;17.22;34.67
54870;BME280;40756;-37.950;145.008;2022-12-13T01:26:59;100401.64;;;17.57;33.83
54870;BME280;40756;-37.950;145.008;2022-12-13T01:29:29;100394.44;;;17.64;33.25
54870;BME280;40756;-37.950;145.008;2022-12-13T01:31:58;100398.74;;;17.42;33.05
54870;BME280;40756;-37.950;145.008;2022-12-13T01:34:28;100395.54;;;18.07;34.31
54870;BME280;40756;-37.950;145.008;2022-12-13T01:36:57;100389.05;;;17.88;36.20
54870;BME280;40756;-37.950;145.008;2022-12-13T01:39:27;100384.57;;;17.57;37.57
54870;BME280;40756;-37.950;145.008;2022-12-13T01:41:57;100374.50;;;18.32;38.89
54870;BME280;40756;-37.950;145.008;2022-12-13T01:45:03;100365.81;;;17.59;36.75
54870;BME280;40756;-37.950;145.008;2022-12-13T01:47:36;100371.68;;;17.26;35.40
54870;BME280;40756;-37.950;145.008;2022-12-13T01:50:11;100377.93;;;18.09;35.80
54870;BME280;40756;-37.950;145.008;2022-12-13T01:52:43;100373.90;;;17.79;37.84
54870;BME280;40756;-37.950;145.008;2022-12-13T01:55:16;100376.55;;;17.69;39.01
54870;BME280;40756;-37.950;145.008;2022-12-13T01:57:48;100371.65;;;18.07;40.70
54870;BME280;40756;-37.950;145.008;2022-12-13T02:00:19;100361.85;;;17.30;40.46
54870;BME280;40756;-37.950;145.008;2022-12-13T02:02:49;100351.15;;;18.24;39.24
54870;BME280;40756;-37.950;145.008;2022-12-13T02:05:24;100345.06;;;18.05;36.87
54870;BME280;40756;-37.950;145.008;2022-12-13T02:07:56;100349.56;;;18.64;36.35
54870;BME280;40756;-37.950;145.008;2022-12-13T02:10:29;100348.90;;;18.17;35.19
54870;BME280;40756;-37.950;145.008;2022-12-13T02:12:59;100355.09;;;18.35;36.55
54870;BME280;40756;-37.950;145.008;2022-12-13T02:15:36;100373.23;;;17.95;36.99
54870;BME280;40756;-37.950;145.008;2022-12-13T02:18:24;100381.07;;;17.99;36.04
54870;BME280;40756;-37.950;145.008;2022-12-13T02:21:04;100426.01;;;17.09;38.54
54870;BME280;40756;-37.950;145.008;2022-12-13T02:24:58;100402.58;;;15.70;48.54
54870;BME280;40756;-37.950;145.008;2022-12-13T02:27:49;100443.78;;;14.31;54.95
54870;BME280;40756;-37.950;145.008;2022-12-13T02:30:24;100437.42;;;12.68;59.67
54870;BME280;40756;-37.950;145.008;2022-12-13T02:33:04;100448.96;;;12.35;60.41
54870;BME280;40756;-37.950;145.008;2022-12-13T02:35:43;100445.70;;;11.96;60.53
54870;BME280;40756;-37.950;145.008;2022-12-13T02:38:26;100464.31;;;12.32;61.21
54870;BME280;40756;-37.950;145.008;2022-12-13T02:41:05;100472.32;;;11.59;61.95
54870;BME280;40756;-37.950;145.008;2022-12-13T02:43:44;100474.55;;;12.16;62.47
54870;BME280;40756;-37.950;145.008;2022-12-13T02:46:18;100487.17;;;12.30;63.91
54870;BME280;40756;-37.950;145.008;2022-12-13T02:48:50;100481.25;;;11.94;63.23
54870;BME280;40756;-37.950;145.008;2022-12-13T02:51:22;100482.50;;;12.69;62.10
54870;BME280;40756;-37.950;145.008;2022-12-13T02:53:51;100480.97;;;12.50;62.91
54870;BME280;40756;-37.950;145.008;2022-12-13T02:56:21;100473.45;;;11.44;64.71
54870;BME280;40756;-37.950;145.008;2022-12-13T02:58:53;100474.20;;;11.91;64.44
54870;BME280;40756;-37.950;145.008;2022-12-13T03:01:37;100469.95;;;13.48;63.79
54870;BME280;40756;-37.950;145.008;2022-12-13T03:04:16;100486.15;;;13.13;61.63
54870;BME280;40756;-37.950;145.008;2022-12-13T03:06:56;100482.96;;;13.25;60.47
54870;BME280;40756;-37.950;145.008;2022-12-13T03:09:41;100498.59;;;12.53;59.63
54870;BME280;40756;-37.950;145.008;2022-12-13T03:12:21;100502.60;;;12.64;58.96
54870;BME280;40756;-37.950;145.008;2022-12-13T03:14:59;100509.62;;;11.79;62.33
54870;BME280;40756;-37.950;145.008;2022-12-13T03:17:33;100517.26;;;11.17;65.35
54870;BME280;40756;-37.950;145.008;2022-12-13T03:20:06;100505.97;;;11.70;64.34
54870;BME280;40756;-37.950;145.008;2022-12-13T03:22:36;100510.76;;;12.16;61.98
54870;BME280;40756;-37.950;145.008;2022-12-13T03:25:06;100506.05;;;11.54;61.45
54870;BME280;40756;-37.950;145.008;2022-12-13T03:27:37;100511.98;;;11.72;62.54
54870;BME280;40756;-37.950;145.008;2022-12-13T03:30:07;100510.30;;;11.90;61.74
54870;BME280;40756;-37.950;145.008;2022-12-13T03:32:37;100519.55;;;12.02;62.65
54870;BME280;40756;-37.950;145.008;2022-12-13T03:35:08;100522.72;;;12.53;62.13
54870;BME280;40756;-37.950;145.008;2022-12-13T03:37:38;100527.15;;;11.84;61.57
54870;BME280;40756;-37.950;145.008;2022-12-13T03:40:08;100531.01;;;11.59;62.97
54870;BME280;40756;-37.950;145.008;2022-12-13T03:42:37;100545.42;;;11.51;63.47
54870;BME280;40756;-37.950;145.008;2022-12-13T03:45:08;100536.16;;;11.12;63.07
54870;BME280;40756;-37.950;145.008;2022-12-13T03:47:38;100540.19;;;10.91;63.85
54870;BME280;40756;-37.950;145.008;2022-12-13T03:50:08;100538.46;;;11.15;61.82
54870;BME280;40756;-37.950;145.008;2022-12-13T03:52:38;100535.75;;;11.95;61.55
54870;BME280;40756;-37.950;145.008;2022-12-13T03:55:08;100521.03;;;12.17;60.71
54870;BME280;40756;-37.950;145.008;2022-12-13T03:57:37;100521.13;;;12.36;58.34
54870;BME280;40756;-37.950;145.008;2022-12-13T04:00:10;100523.49;;;13.16;58.82
54870;BME280;40756;-37.950;145.008;2022-12-13T04:02:40;100540.80;;;12.38;58.83
54870;BME280;40756;-37.950;145.008;2022-12-13T04:05:10;100535.43;;;12.12;59.25
54870;BME280;40756;-37.950;145.008;2022-12-13T04:07:39;100543.70;;;12.44;58.76
54870;BME280;40756;-37.950;145.008;2022-12-13T04:10:09;100534.15;;;12.29;59.01
54870;BME280;40756;-37.950;145.008;2022-12-13T04:12:39;100527.01;;;12.98;59.12
54870;BME280;40756;-37.950;145.008;2022-12-13T04:15:09;100525.07;;;12.33;58.46
54870;BME280;40756;-37.950;145.008;2022-12-13T04:17:39;100527.00;;;12.41;58.69
54870;BME280;40756;-37.950;145.008;2022-12-13T04:20:09;100539.92;;;12.41;55.73
54870;BME280;40756;-37.950;145.008;2022-12-13T04:22:39;100544.07;;;12.62;56.31
54870;BME280;40756;-37.950;145.008;2022-12-13T04:25:09;100542.44;;;12.41;56.70
54870;BME280;40756;-37.950;145.008;2022-12-13T04:27:39;100546.20;;;12.48;55.68
54870;BME280;40756;-37.950;145.008;2022-12-13T04:30:10;100538.01;;;13.48;54.20
54870;BME280;40756;-37.950;145.008;2022-12-13T04:32:40;100536.23;;;13.06;55.78
54870;BME280;40756;-37.950;145.008;2022-12-13T04:35:10;100530.95;;;13.20;53.26
54870;BME280;40756;-37.950;145.008;2022-12-13T04:37:39;100534.61;;;13.34;53.46
54870;BME280;40756;-37.950;145.008;2022-12-13T04:40:10;100531.56;;;13.25;53.05
54870;BME280;40756;-37.950;145.008;2022-12-13T04:42:39;100532.84;;;13.62;53.06
54870;BME280;40756;-37.950;145.008;2022-12-13T04:45:11;100535.25;;;13.49;52.82
54870;BME280;40756;-37.950;145.008;2022-12-13T04:47:43;100539.03;;;14.67;51.11
54870;BME280;40756;-37.950;145.008;2022-12-13T04:50:13;100537.63;;;13.72;51.57
54870;BME280;40756;-37.950;145.008;2022-12-13T04:52:42;100527.28;;;14.11;48.80
54870;BME280;40756;-37.950;145.008;2022-12-13T04:55:13;100529.38;;;14.69;48.73
54870;BME280;40756;-37.950;145.008;2022-12-13T04:57:42;100532.00;;;13.72;48.79
54870;BME280;40756;-37.950;145.008;2022-12-13T05:00:13;100531.22;;;14.70;47.81
54870;BME280;40756;-37.950;145.008;2022-12-13T05:02:42;100538.81;;;14.39;47.71
54870;BME280;40756;-37.950;145.008;2022-12-13T05:05:12;100525.31;;;14.13;48.71
54870;BME280;40756;-37.950;145.008;2022-12-13T05:07:42;100525.86;;;14.67;48.58
54870;BME280;40756;-37.950;145.008;2022-12-13T05:10:12;100520.30;;;14.69;49.00
54870;BME280;40756;-37.950;145.008;2022-12-13T05:12:41;100535.08;;;13.70;47.68
54870;BME280;40756;-37.950;145.008;2022-12-13T05:15:11;100517.39;;;14.69;48.29
54870;BME280;40756;-37.950;145.008;2022-12-13T05:17:40;100522.20;;;14.19;47.38
54870;BME280;40756;-37.950;145.008;2022-12-13T05:20:11;100532.86;;;13.49;44.09
54870;BME280;40756;-37.950;145.008;2022-12-13T05:22:40;100543.61;;;13.49;41.14
54870;BME280;40756;-37.950;145.008;2022-12-13T05:25:10;100541.50;;;13.96;42.14
54870;BME280;40756;-37.950;145.008;2022-12-13T05:27:40;100536.79;;;14.04;41.70
54870;BME280;40756;-37.950;145.008;2022-12-13T05:30:11;100547.67;;;13.57;43.89
54870;BME280;40756;-37.950;145.008;2022-12-13T05:32:40;100563.01;;;13.62;41.37
54870;BME280;40756;-37.950;145.008;2022-12-13T05:35:10;100560.73;;;13.20;41.50
54870;BME280;40756;-37.950;145.008;2022-12-13T05:37:40;100562.37;;;12.99;43.00
54870;BME280;40756;-37.950;145.008;2022-12-13T05:40:10;100565.87;;;14.02;42.91
54870;BME280;40756;-37.950;145.008;2022-12-13T05:42:40;100557.47;;;14.30;39.40
54870;BME280;40756;-37.950;145.008;2022-12-13T05:45:10;100554.65;;;14.49;40.90
54870;BME280;40756;-37.950;145.008;2022-12-13T05:47:40;100554.72;;;14.40;39.35
54870;BME280;40756;-37.950;145.008;2022-12-13T05:55:45;100545.32;;;14.83;37.82
54870;BME280;40756;-37.950;145.008;2022-12-13T05:58:14;100541.76;;;14.25;38.63
54870;BME280;40756;-37.950;145.008;2022-12-13T06:00:44;100533.98;;;15.34;36.23
54870;BME280;40756;-37.950;145.008;2022-12-13T06:03:14;100544.73;;;15.43;38.32
54870;BME280;40756;-37.950;145.008;2022-12-13T06:05:43;100540.66;;;14.60;37.76
54870;BME280;40756;-37.950;145.008;2022-12-13T06:08:13;100539.90;;;13.90;38.06
54870;BME280;40756;-37.950;145.008;2022-12-13T06:10:42;100544.44;;;14.94;38.22
54870;BME280;40756;-37.950;145.008;2022-12-13T06:13:12;100548.01;;;15.03;35.30
54870;BME280;40756;-37.950;145.008;2022-12-13T06:15:42;100545.93;;;15.14;34.11
54870;BME280;40756;-37.950;145.008;2022-12-13T06:18:11;100554.20;;;15.29;34.48
54870;BME280;40756;-37.950;145.008;2022-12-13T06:20:41;100543.32;;;15.29;33.63
54870;BME280;40756;-37.950;145.008;2022-12-13T06:23:11;100548.84;;;15.43;35.35
54870;BME280;40756;-37.950;145.008;2022-12-13T06:25:40;100549.82;;;15.15;33.45
54870;BME280;40756;-37.950;145.008;2022-12-13T06:28:11;100548.95;;;15.32;34.14
54870;BME280;40756;-37.950;145.008;2022-12-13T06:30:40;100556.71;;;14.50;33.99
54870;BME280;40756;-37.950;145.008;2022-12-13T06:33:10;100548.68;;;15.05;35.10
54870;BME280;40756;-37.950;145.008;2022-12-13T06:35:39;100552.72;;;15.61;33.22
54870;BME280;40756;-37.950;145.008;2022-12-13T06:38:09;100554.90;;;15.17;33.68
54870;BME280;40756;-37.950;145.008;2022-12-13T06:40:39;100564.09;;;16.14;34.30
54870;BME280;40756;-37.950;145.008;2022-12-13T06:43:08;100558.49;;;15.79;34.63
54870;BME280;40756;-37.950;145.008;2022-12-13T06:45:39;100574.59;;;15.77;35.48
54870;BME280;40756;-37.950;145.008;2022-12-13T06:48:09;100566.95;;;16.13;35.02
54870;BME280;40756;-37.950;145.008;2022-12-13T06:50:39;100572.26;;;15.15;34.71
54870;BME280;40756;-37.950;145.008;2022-12-13T06:53:08;100584.05;;;14.80;36.20
54870;BME280;40756;-37.950;145.008;2022-12-13T06:55:38;100582.47;;;15.05;36.02
54870;BME280;40756;-37.950;145.008;2022-12-13T06:58:07;100583.95;;;14.70;36.53
54870;BME280;40756;-37.950;145.008;2022-12-13T07:00:37;100583.25;;;15.02;36.72
54870;BME280;40756;-37.950;145.008;2022-12-13T07:03:07;100585.46;;;15.47;36.27
54870;BME280;40756;-37.950;145.008;2022-12-13T07:05:38;100572.98;;;15.75;34.08
54870;BME280;40756;-37.950;145.008;2022-12-13T07:08:08;100588.60;;;14.96;34.77
54870;BME280;40756;-37.950;145.008;2022-12-13T07:10:39;100595.53;;;14.66;36.08
54870;BME280;40756;-37.950;145.008;2022-12-13T07:13:09;100594.67;;;15.82;34.94
54870;BME280;40756;-37.950;145.008;2022-12-13T07:15:39;100596.05;;;14.99;35.06
54870;BME280;40756;-37.950;145.008;2022-12-13T07:18:09;100595.27;;;15.53;36.01
54870;BME280;40756;-37.950;145.008;2022-12-13T07:20:40;100599.91;;;15.49;35.73
54870;BME280;40756;-37.950;145.008;2022-12-13T07:23:10;100605.33;;;14.96;34.58
54870;BME280;40756;-37.950;145.008;2022-12-13T07:25:40;100607.17;;;14.86;35.07
54870;BME280;40756;-37.950;145.008;2022-12-13T07:28:10;100616.69;;;14.29;35.66
54870;BME280;40756;-37.950;145.008;2022-12-13T07:30:40;100618.41;;;14.76;35.80
54870;BME280;40756;-37.950;145.008;2022-12-13T07:33:10;100622.29;;;15.05;35.79
54870;BME280;40756;-37.950;145.008;2022-12-13T07:35:39;100627.35;;;14.95;34.97
54870;BME280;40756;-37.950;145.008;2022-12-13T07:38:10;100636.33;;;15.27;33.36
54870;BME280;40756;-37.950;145.008;2022-12-13T07:40:40;100634.83;;;15.43;32.88
54870;BME280;40756;-37.950;145.008;2022-12-13T07:43:10;100651.47;;;14.49;34.03
54870;BME280;40756;-37.950;145.008;2022-12-13T07:45:39;100648.85;;;14.60;34.21
54870;BME280;40756;-37.950;145.008;2022-12-13T07:48:09;100646.60;;;14.71;35.58
54870;BME280;40756;-37.950;145.008;2022-12-13T07:50:39;100655.92;;;14.14;36.48
54870;BME280;40756;-37.950;145.008;2022-12-13T07:53:09;100659.12;;;14.62;36.17
54870;BME280;40756;-37.950;145.008;2022-12-13T07:55:39;100674.32;;;14.02;37.60
54870;BME280;40756;-37.950;145.008;2022-12-13T07:58:10;100682.24;;;14.89;38.46
54870;BME280;40756;-37.950;145.008;2022-12-13T08:00:42;100693.41;;;12.60;38.27
54870;BME280;40756;-37.950;145.008;2022-12-13T08:03:12;100704.50;;;13.25;38.90
54870;BME280;40756;-37.950;145.008;2022-12-13T08:05:42;100710.44;;;12.70;39.66
54870;BME280;40756;-37.950;145.008;2022-12-13T08:08:12;100713.42;;;12.91;39.76
54870;BME280;40756;-37.950;145.008;2022-12-13T08:10:42;100724.92;;;12.39;41.08
54870;BME280;40756;-37.950;145.008;2022-12-13T08:13:11;100726.76;;;12.83;41.45
54870;BME280;40756;-37.950;145.008;2022-12-13T08:15:41;100727.59;;;13.28;40.66
54870;BME280;40756;-37.950;145.008;2022-12-13T08:18:11;100728.57;;;12.54;40.26
54870;BME280;40756;-37.950;145.008;2022-12-13T08:20:40;100726.55;;;14.00;37.55
54870;BME280;40756;-37.950;145.008;2022-12-13T08:23:10;100729.53;;;13.83;37.86
54870;BME280;40756;-37.950;145.008;2022-12-13T08:25:40;100729.98;;;13.07;37.51
54870;BME280;40756;-37.950;145.008;2022-12-13T08:28:09;100739.56;;;13.43;36.84
54870;BME280;40756;-37.950;145.008;2022-12-13T08:30:39;100737.76;;;13.23;36.61
54870;BME280;40756;-37.950;145.008;2022-12-13T08:33:09;100741.24;;;13.81;35.70
54870;BME280;40756;-37.950;145.008;2022-12-13T08:35:38;100746.62;;;13.25;35.76
54870;BME280;40756;-37.950;145.008;2022-12-13T08:38:08;100745.79;;;13.86;35.73
54870;BME280;40756;-37.950;145.008;2022-12-13T08:40:38;100747.09;;;13.33;36.00
54870;BME280;40756;-37.950;145.008;2022-12-13T08:43:08;100752.60;;;12.91;36.89
54870;BME280;40756;-37.950;145.008;2022-12-13T08:45:37;100751.80;;;13.20;36.68
54870;BME280;40756;-37.950;145.008;2022-12-13T08:48:08;100755.91;;;13.36;37.67
54870;BME280;40756;-37.950;145.008;2022-12-13T08:50:38;100759.81;;;12.71;38.15
54870;BME280;40756;-37.950;145.008;2022-12-13T08:53:07;100757.81;;;13.08;38.73
54870;BME280;40756;-37.950;145.008;2022-12-13T08:55:37;100756.04;;;12.43;39.21
54870;BME280;40756;-37.950;145.008;2022-12-13T08:58:07;100761.02;;;12.30;38.76
54870;BME280;40756;-37.950;145.008;2022-12-13T09:00:37;100760.33;;;12.63;38.84
54870;BME280;40756;-37.950;145.008;2022-12-13T09:03:07;100762.34;;;12.76;37.37
54870;BME280;40756;-37.950;145.008;2022-12-13T09:05:37;100758.75;;;12.47;37.44
54870;BME280;40756;-37.950;145.008;2022-12-13T09:08:07;100756.31;;;12.84;37.70
54870;BME280;40756;-37.950;145.008;2022-12-13T09:10:36;100760.12;;;12.94;37.67
54870;BME280;40756;-37.950;145.008;2022-12-13T09:13:06;100760.39;;;13.41;37.13
54870;BME280;40756;-37.950;145.008;2022-12-13T09:15:39;100782.84;;;13.35;39.24
54870;BME280;40756;-37.950;145.008;2022-12-13T09:18:08;100801.16;;;10.96;51.22
54870;BME280;40756;-37.950;145.008;2022-12-13T09:20:38;100801.55;;;11.08;50.59
54870;BME280;40756;-37.950;145.008;2022-12-13T09:23:08;100798.91;;;11.31;50.84
54870;BME280;40756;-37.950;145.008;2022-12-13T09:25:38;100792.69;;;11.70;51.78
54870;BME280;40756;-37.950;145.008;2022-12-13T09:28:08;100806.97;;;10.71;52.80
54870;BME280;40756;-37.950;145.008;2022-12-13T09:30:39;100808.98;;;11.03;52.17
54870;BME280;40756;-37.950;145.008;2022-12-13T09:33:08;100808.34;;;10.92;52.95
54870;BME280;40756;-37.950;145.008;2022-12-13T09:35:38;100806.05;;;11.11;54.21
54870;BME280;40756;-37.950;145.008;2022-12-13T09:38:08;100828.86;;;11.24;53.24
54870;BME280;40756;-37.950;145.008;2022-12-13T09:40:39;100827.04;;;10.80;52.70
54870;BME280;40756;-37.950;145.008;2022-12-13T09:43:14;100813.44;;;11.46;49.67
54870;BME280;40756;-37.950;145.008;2022-12-13T09:45:47;100812.25;;;11.52;48.35
54870;BME280;40756;-37.950;145.008;2022-12-13T09:48:19;100811.67;;;11.55;48.03
54870;BME280;40756;-37.950;145.008;2022-12-13T09:50:50;100815.97;;;11.59;48.73
54870;BME280;40756;-37.950;145.008;2022-12-13T09:53:20;100813.58;;;10.93;46.52
54870;BME280;40756;-37.950;145.008;2022-12-13T09:55:50;100817.22;;;10.95;47.36
54870;BME280;40756;-37.950;145.008;2022-12-13T09:58:24;100827.45;;;10.53;46.93
54870;BME280;40756;-37.950;145.008;2022-12-13T10:00:56;100839.00;;;10.52;46.80
54870;BME280;40756;-37.950;145.008;2022-12-13T10:03:27;100836.34;;;10.35;47.61
54870;BME280;40756;-37.950;145.008;2022-12-13T10:05:59;100842.23;;;11.46;46.92
54870;BME280;40756;-37.950;145.008;2022-12-13T10:08:34;100847.02;;;10.57;47.55
54870;BME280;40756;-37.950;145.008;2022-12-13T10:11:05;100843.45;;;10.29;48.10
54870;BME280;40756;-37.950;145.008;2022-12-13T10:13:40;100847.76;;;10.33;48.61
54870;BME280;40756;-37.950;145.008;2022-12-13T10:16:15;100849.73;;;11.37;47.50
54870;BME280;40756;-37.950;145.008;2022-12-13T10:18:47;100867.02;;;10.98;46.03
54870;BME280;40756;-37.950;145.008;2022-12-13T10:21:19;100854.84;;;10.12;47.86
54870;BME280;40756;-37.950;145.008;2022-12-13T10:23:51;100855.52;;;10.79;47.55
54870;BME280;40756;-37.950;145.008;2022-12-13T10:26:20;100859.12;;;11.27;46.21
54870;BME280;40756;-37.950;145.008;2022-12-13T10:28:50;100865.77;;;11.12;47.52
54870;BME280;40756;-37.950;145.008;2022-12-13T10:31:30;100862.39;;;10.03;47.09
54870;BME280;40756;-37.950;145.008;2022-12-13T10:34:19;100868.67;;;10.91;47.16
54870;BME280;40756;-37.950;145.008;2022-12-13T10:36:49;100870.65;;;10.88;46.14
54870;BME280;40756;-37.950;145.008;2022-12-13T10:39:37;100874.54;;;10.65;45.72
54870;BME280;40756;-37.950;145.008;2022-12-13T10:42:12;100876.33;;;10.20;46.49
54870;BME280;40756;-37.950;145.008;2022-12-13T10:44:42;100871.56;;;10.94;46.50
54870;BME280;40756;-37.950;145.008;2022-12-13T10:47:16;100879.71;;;10.49;47.56
54870;BME280;40756;-37.950;145.008;2022-12-13T10:49:51;100873.86;;;10.60;48.55
54870;BME280;40756;-37.950;145.008;2022-12-13T10:52:24;100878.76;;;10.33;47.49
54870;BME280;40756;-37.950;145.008;2022-12-13T10:54:56;100877.61;;;10.33;49.08
54870;BME280;40756;-37.950;145.008;2022-12-13T10:57:26;100886.32;;;9.69;49.67
54870;BME280;40756;-37.950;145.008;2022-12-13T10:59:56;100882.43;;;10.94;49.45
54870;BME280;40756;-37.950;145.008;2022-12-13T11:02:33;100894.14;;;9.78;49.66
54870;BME280;40756;-37.950;145.008;2022-12-13T11:05:24;100899.36;;;10.25;49.77
54870;BME280;40756;-37.950;145.008;2022-12-13T11:07:55;100897.45;;;10.32;48.33
54870;BME280;40756;-37.950;145.008;2022-12-13T11:10:39;100899.14;;;9.64;48.27
54870;BME280;40756;-37.950;145.008;2022-12-13T11:13:22;100901.41;;;10.77;48.62
54870;BME280;40756;-37.950;145.008;2022-12-13T11:15:55;100902.76;;;10.19;48.96
54870;BME280;40756;-37.950;145.008;2022-12-13T11:18:27;100899.47;;;10.04;48.30
54870;BME280;40756;-37.950;145.008;2022-12-13T11:21:02;100904.73;;;10.46;49.07
54870;BME280;40756;-37.950;145.008;2022-12-13T11:23:35;100903.71;;;10.72;48.69
54870;BME280;40756;-37.950;145.008;2022-12-13T11:26:09;100905.74;;;10.57;48.32
54870;BME280;40756;-37.950;145.008;2022-12-13T11:29:10;100908.86;;;10.27;48.56
54870;BME280;40756;-37.950;145.008;2022-12-13T11:31:47;100909.67;;;10.65;47.86
54870;BME280;40756;-37.950;145.008;2022-12-13T11:34:29;100916.69;;;10.21;48.85
54870;BME280;40756;-37.950;145.008;2022-12-13T11:37:15;100921.86;;;10.56;47.92
54870;BME280;40756;-37.950;145.008;2022-12-13T11:39:51;100922.11;;;10.58;49.14
54870;BME280;40756;-37.950;145.008;2022-12-13T11:42:27;100921.96;;;10.47;48.72
54870;BME280;40756;-37.950;145.008;2022-12-13T11:45:04;100914.14;;;10.00;50.16
54870;BME280;40756;-37.950;145.008;2022-12-13T11:47:45;100910.68;;;10.24;48.25
54870;BME280;40756;-37.950;145.008;2022-12-13T11:50:19;100912.33;;;10.81;47.21
54870;BME280;40756;-37.950;145.008;2022-12-13T11:52:54;100915.61;;;9.94;47.79
54870;BME280;40756;-37.950;145.008;2022-12-13T11:55:27;100915.74;;;10.38;47.73
54870;BME280;40756;-37.950;145.008;2022-12-13T11:58:09;100915.47;;;10.55;46.63
54870;BME280;40756;-37.950;145.008;2022-12-13T12:00:44;100913.93;;;10.33;46.15
54870;BME280;40756;-37.950;145.008;2022-12-13T12:03:19;100912.68;;;10.14;46.94
54870;BME280;40756;-37.950;145.008;2022-12-13T12:05:52;100915.46;;;10.59;47.55
54870;BME280;40756;-37.950;145.008;2022-12-13T12:08:31;100915.27;;;10.26;47.85
54870;BME280;40756;-37.950;145.008;2022-12-13T12:11:08;100911.37;;;10.75;47.66
54870;BME280;40756;-37.950;145.008;2022-12-13T12:13:42;100906.25;;;10.55;47.28
54870;BME280;40756;-37.950;145.008;2022-12-13T12:16:22;100907.87;;;10.11;47.10
54870;BME280;40756;-37.950;145.008;2022-12-13T12:18:53;100903.25;;;10.97;46.36
54870;BME280;40756;-37.950;145.008;2022-12-13T12:21:34;100899.67;;;10.82;47.09
54870;BME280;40756;-37.950;145.008;2022-12-13T12:24:14;100897.99;;;11.01;47.08
54870;BME280;40756;-37.950;145.008;2022-12-13T12:26:57;100894.25;;;10.89;46.28
54870;BME280;40756;-37.950;145.008;2022-12-13T12:30:02;100898.37;;;11.13;46.18
54870;BME280;40756;-37.950;145.008;2022-12-13T12:32:44;100897.03;;;11.24;45.89
54870;BME280;40756;-37.950;145.008;2022-12-13T12:35:26;100900.19;;;11.00;46.08
54870;BME280;40756;-37.950;145.008;2022-12-13T12:38:07;100904.26;;;10.14;46.84
54870;BME280;40756;-37.950;145.008;2022-12-13T12:41:05;100905.78;;;10.65;45.80
54870;BME280;40756;-37.950;145.008;2022-12-13T12:43:41;100906.41;;;11.05;45.52
54870;BME280;40756;-37.950;145.008;2022-12-13T12:46:28;100903.28;;;10.98;44.66
54870;BME280;40756;-37.950;145.008;2022-12-13T12:49:22;100897.32;;;11.36;44.77
54870;BME280;40756;-37.950;145.008;2022-12-13T12:52:00;100891.07;;;11.11;44.57
54870;BME280;40756;-37.950;145.008;2022-12-13T12:54:42;100885.01;;;10.80;45.22